Aérodrome :
LOGIN :

S'inscrire | Disclaimer

   EN    FR    IT 

 










Légende :    VFR   VFR Marginal   IFR   IFR Intensif   IFR Très Intensif
Visi : 
Plafond : 
>= 8 km
>= 3000ft
5 à 8 km
1000 à 3000 ft
1500m à 5 km
500 à 1000 ft
800 à 1500m
200 à 500 ft
< 800m
< 200 ft
Symboles :   Orages  Brouillard  Fortes neiges  Fortes précipitations  Vent > 20 kt
SIGMETs :   Divers  Orages  Givrage  Turbulence  Onde Orograph.  Cendres Volcan.






- Altitude de l'aérodrome : 465 ft
- Code IATA : OMR


LROD - Oradea International

DERNIER METAR :
  • 151330Z 10005KT 6000 -SN OVC031 M03/M04 Q1016 R01/590294

METARs EXPIRÉS :
  • 151300Z 10005KT 8000 -SN OVC029 M03/M04 Q1015 R01/590294
  • 151230Z 08007KT 050V110 8000 -SN OVC024 M03/M04 Q1015 R01/590294
  • 151200Z 09006KT 060V120 5000 -SN BR OVC023 M03/M03 Q1015 R01/590294
  • 151130Z 06007KT 4500 -SN BR FEW010 OVC020 M03/M03 Q1016 R01/590294
  • 151100Z 07005KT 3800 -SN BR SCT013 OVC017 M02/M03 Q1016 R01/72//94

TAF TAF LROD
Valide du 15 à 12h jusqu'au 15 à 21h UTC


151100Z 1512/1521 VRB04KT 3000 -SN BR SCT010 BKN015
TEMPO 1512/1516 1500 SN BKN005 OVC010
BECMG 1514/1516 01010KT
BECMG 1516/1518 9999 NSW BKN040



MET'MAP, la Météo Aéronautique d'un coup d'oeil ! - Copyright ORBIFLY Décembre 2007 - Disclaimer

ORBIFLY MET'MAP TEAM :

Programmation & Développement : Alexandra Zaïnal
Sur une idée originale de : Baudouin d'Aumeries
Assistance à la programmation : Marc-Olivier Méhu
Soutien technique & logistique : Manuel Goepfert

Contact : metmap@orbifly.com




SOURCES & CREDITS :

   NOAA